Time,TemperatureF,DewpointF,PressureIn,WindDirection,WindDirectionDegrees,WindSpeedMPH,WindSpeedGustMPH,Humidity,HourlyPrecipIn,Conditions,Clouds,dailyrainin,SoftwareType,DateUTC
2013-10-22 00:01:00,46.3,44.0,29.97,SSE,163,0.0,0.0,92,0.00,,,0.00,weatherlink.com 1.10,2013-10-22 04:01:00,
2013-10-22 00:16:00,46.0,44.0,29.97,SSE,163,0.0,0.0,93,0.00,,,0.00,weatherlink.com 1.10,2013-10-22 04:16:00,
2013-10-22 00:31:00,45.6,44.0,29.97,SSE,163,0.0,0.0,93,0.00,,,0.00,weatherlink.com 1.10,2013-10-22 04:31:00,
2013-10-22 00:46:00,45.2,44.0,29.96,SSE,163,0.0,0.0,94,0.00,,,0.00,weatherlink.com 1.10,2013-10-22 04:46:00,
2013-10-22 01:01:00,44.7,43.0,29.96,SSE,163,0.0,0.0,94,0.00,,,0.00,weatherlink.com 1.10,2013-10-22 05:01:00,
2013-10-22 01:16:00,44.4,43.0,29.96,SSE,163,0.0,0.0,94,0.00,,,0.00,weatherlink.com 1.10,2013-10-22 05:16:00,
2013-10-22 01:31:00,44.0,43.0,29.95,SSE,163,0.0,0.0,95,0.00,,,0.00,weatherlink.com 1.10,2013-10-22 05:31:00,
2013-10-22 01:46:00,44.3,43.0,29.96,SSE,163,0.0,0.0,96,0.00,,,0.00,weatherlink.com 1.10,2013-10-22 05:46:00,
2013-10-22 02:01:00,43.8,43.0,29.95,SSE,163,0.0,0.0,95,0.00,,,0.00,weatherlink.com 1.10,2013-10-22 06:01:00,
2013-10-22 02:16:00,43.8,43.0,29.95,SSE,163,0.0,0.0,96,0.00,,,0.00,weatherlink.com 1.10,2013-10-22 06:16:00,
2013-10-22 02:31:00,43.2,42.0,29.94,SSE,163,0.0,0.0,95,0.00,,,0.00,weatherlink.com 1.10,2013-10-22 06:31:00,
2013-10-22 02:46:00,43.4,42.0,29.93,SSE,163,0.0,0.0,96,0.00,,,0.00,weatherlink.com 1.10,2013-10-22 06:46:00,
2013-10-22 03:01:00,43.1,42.0,29.93,SSE,163,0.0,0.0,96,0.00,,,0.00,weatherlink.com 1.10,2013-10-22 07:01:00,
2013-10-22 03:16:00,43.0,42.0,29.92,SSE,163,0.0,0.0,96,0.00,,,0.00,weatherlink.com 1.10,2013-10-22 07:16:00,
2013-10-22 03:31:00,42.8,42.0,29.91,SSE,163,0.0,0.0,96,0.00,,,0.00,weatherlink.com 1.10,2013-10-22 07:31:00,
2013-10-22 03:46:00,42.5,41.0,29.91,SSE,163,0.0,0.0,95,0.00,,,0.00,weatherlink.com 1.10,2013-10-22 07:46:00,
2013-10-22 04:01:00,42.1,41.0,29.91,SSE,163,0.0,0.0,95,0.00,,,0.00,weatherlink.com 1.10,2013-10-22 08:01:00,
2013-10-22 04:16:00,42.0,41.0,29.90,SSE,163,0.0,0.0,96,0.00,,,0.00,weatherlink.com 1.10,2013-10-22 08:16:00,
2013-10-22 04:31:00,41.7,41.0,29.90,SSE,163,0.0,0.0,96,0.00,,,0.00,weatherlink.com 1.10,2013-10-22 08:31:00,
2013-10-22 04:46:00,41.6,41.0,29.90,SSE,163,0.0,0.0,96,0.00,,,0.00,weatherlink.com 1.10,2013-10-22 08:46:00,
2013-10-22 05:01:00,41.5,41.0,29.89,SSE,163,0.0,0.0,96,0.00,,,0.00,weatherlink.com 1.10,2013-10-22 09:01:00,
2013-10-22 05:16:00,41.6,41.0,29.89,SSE,163,0.0,0.0,96,0.00,,,0.00,weatherlink.com 1.10,2013-10-22 09:16:00,
2013-10-22 05:32:00,41.2,40.0,29.88,SSE,163,0.0,0.0,95,0.00,,,0.00,weatherlink.com 1.10,2013-10-22 09:32:00,
2013-10-22 05:47:00,41.2,40.0,29.88,SSE,163,0.0,0.0,96,0.00,,,0.00,weatherlink.com 1.10,2013-10-22 09:47:00,
2013-10-22 06:02:00,41.5,41.0,29.88,SSE,163,0.0,0.0,97,0.00,,,0.00,weatherlink.com 1.10,2013-10-22 10:02:00,
2013-10-22 06:17:00,41.5,41.0,29.87,SSE,163,0.0,0.0,97,0.00,,,0.00,weatherlink.com 1.10,2013-10-22 10:17:00,
2013-10-22 06:32:00,41.5,41.0,29.87,SSE,163,0.0,0.0,96,0.00,,,0.00,weatherlink.com 1.10,2013-10-22 10:32:00,
2013-10-22 06:47:00,41.5,41.0,29.86,SSE,163,0.0,0.0,97,0.00,,,0.00,weatherlink.com 1.10,2013-10-22 10:47:00,
2013-10-22 07:02:00,41.6,41.0,29.86,SSE,163,0.0,0.0,97,0.00,,,0.00,weatherlink.com 1.10,2013-10-22 11:02:00,
2013-10-22 07:17:00,41.3,41.0,29.86,SSE,163,0.0,0.0,97,0.00,,,0.00,weatherlink.com 1.10,2013-10-22 11:17:00,
2013-10-22 07:32:00,40.8,40.0,29.85,SSE,163,0.0,0.0,96,0.00,,,0.00,weatherlink.com 1.10,2013-10-22 11:32:00,
2013-10-22 07:47:00,41.3,41.0,29.84,SSE,163,0.0,0.0,97,0.00,,,0.00,weatherlink.com 1.10,2013-10-22 11:47:00,
2013-10-22 08:02:00,42.4,42.0,29.84,SSE,163,0.0,0.0,98,0.00,,,0.00,weatherlink.com 1.10,2013-10-22 12:02:00,
2013-10-22 08:17:00,43.4,43.0,29.84,SSE,163,0.0,0.0,98,0.00,,,0.00,weatherlink.com 1.10,2013-10-22 12:17:00,
2013-10-22 08:32:00,44.5,44.0,29.83,SSE,163,0.0,0.0,98,0.00,,,0.00,weatherlink.com 1.10,2013-10-22 12:32:00,
2013-10-22 08:47:00,45.9,45.0,29.83,SSE,163,0.0,0.0,98,0.00,,,0.00,weatherlink.com 1.10,2013-10-22 12:47:00,
2013-10-22 09:02:00,47.4,47.0,29.83,SSE,163,0.0,0.0,99,0.00,,,0.00,weatherlink.com 1.10,2013-10-22 13:02:00,
2013-10-22 09:17:00,48.9,49.0,29.83,SSE,163,0.0,0.0,99,0.00,,,0.00,weatherlink.com 1.10,2013-10-22 13:17:00,
2013-10-22 09:32:00,51.1,51.0,29.83,SE,129,0.0,0.0,98,0.00,,,0.00,weatherlink.com 1.10,2013-10-22 13:32:00,
2013-10-22 09:47:00,53.4,51.0,29.82,SE,129,0.0,0.0,91,0.00,,,0.00,weatherlink.com 1.10,2013-10-22 13:47:00,
2013-10-22 10:02:00,54.7,51.0,29.82,SSE,148,0.0,2.0,88,0.00,,,0.00,weatherlink.com 1.10,2013-10-22 14:02:00,
2013-10-22 10:17:00,57.0,52.0,29.81,North,359,0.0,3.0,82,0.00,,,0.00,weatherlink.com 1.10,2013-10-22 14:17:00,
2013-10-22 10:32:00,58.5,52.0,29.81,SE,141,0.0,2.0,78,0.00,,,0.00,weatherlink.com 1.10,2013-10-22 14:32:00,
2013-10-22 10:47:00,59.5,51.0,29.80,SSE,163,0.0,2.0,74,0.00,,,0.00,weatherlink.com 1.10,2013-10-22 14:47:00,
2013-10-22 11:02:00,60.4,50.0,29.80,SSE,152,0.0,2.0,69,0.00,,,0.00,weatherlink.com 1.10,2013-10-22 15:02:00,
2013-10-22 11:17:00,60.7,50.0,29.79,SE,145,0.0,1.0,69,0.00,,,0.00,weatherlink.com 1.10,2013-10-22 15:17:00,
2013-10-22 11:33:00,61.9,50.0,29.79,South,172,2.0,4.0,66,0.00,,,0.00,weatherlink.com 1.10,2013-10-22 15:33:00,
2013-10-22 11:48:00,62.7,50.0,29.79,South,170,1.0,4.0,64,0.00,,,0.00,weatherlink.com 1.10,2013-10-22 15:48:00,
2013-10-22 12:03:00,63.7,50.0,29.78,WNW,299,0.0,3.0,62,0.00,,,0.00,weatherlink.com 1.10,2013-10-22 16:03:00,
2013-10-22 12:18:00,64.1,50.0,29.77,ESE,108,0.0,3.0,61,0.00,,,0.00,weatherlink.com 1.10,2013-10-22 16:18:00,
2013-10-22 12:33:00,64.4,50.0,29.76,South,180,2.0,2.0,60,0.00,,,0.00,weatherlink.com 1.10,2013-10-22 16:33:00,
2013-10-22 12:48:00,65.0,50.0,29.76,NE,41,0.0,2.0,59,0.00,,,0.00,weatherlink.com 1.10,2013-10-22 16:48:00,
2013-10-22 13:03:00,64.9,50.0,29.75,ENE,70,0.0,3.0,58,0.00,,,0.00,weatherlink.com 1.10,2013-10-22 17:03:00,
2013-10-22 13:18:00,64.5,47.0,29.74,NE,35,0.0,6.0,54,0.00,,,0.00,weatherlink.com 1.10,2013-10-22 17:18:00,
2013-10-22 13:33:00,64.7,47.0,29.74,SW,221,0.0,4.0,54,0.00,,,0.00,weatherlink.com 1.10,2013-10-22 17:33:00,
2013-10-22 13:48:00,64.3,48.0,29.74,NE,38,0.0,1.0,56,0.00,,,0.00,weatherlink.com 1.10,2013-10-22 17:48:00,
2013-10-22 14:03:00,62.9,48.0,29.74,SE,141,0.0,2.0,58,0.00,,,0.00,weatherlink.com 1.10,2013-10-22 18:03:00,
2013-10-22 14:18:00,62.2,48.0,29.74,North,355,1.0,2.0,61,0.00,,,0.00,weatherlink.com 1.10,2013-10-22 18:18:00,
2013-10-22 14:33:00,61.3,47.0,29.74,NNW,340,0.0,2.0,60,0.00,,,0.00,weatherlink.com 1.10,2013-10-22 18:33:00,
2013-10-22 14:48:00,60.5,49.0,29.74,SSE,153,1.0,1.0,65,0.00,,,0.00,weatherlink.com 1.10,2013-10-22 18:48:00,
2013-10-22 15:03:00,60.3,49.0,29.74,SSE,153,0.0,0.0,66,0.00,,,0.00,weatherlink.com 1.10,2013-10-22 19:03:00,
2013-10-22 15:18:00,60.1,49.0,29.74,SE,138,0.0,1.0,66,0.00,,,0.00,weatherlink.com 1.10,2013-10-22 19:18:00,
2013-10-22 15:33:00,59.9,48.0,29.73,ESE,121,0.0,0.0,66,0.00,,,0.00,weatherlink.com 1.10,2013-10-22 19:33:00,
2013-10-22 15:48:00,59.4,50.0,29.72,SSE,154,0.0,1.0,71,0.00,,,0.00,weatherlink.com 1.10,2013-10-22 19:48:00,
2013-10-22 16:03:00,58.9,50.0,29.73,ESE,105,0.0,1.0,73,0.00,,,0.00,weatherlink.com 1.10,2013-10-22 20:03:00,
2013-10-22 16:18:00,58.6,51.0,29.72,ENE,72,0.0,1.0,75,0.00,,,0.00,weatherlink.com 1.10,2013-10-22 20:18:00,
2013-10-22 16:33:00,58.5,51.0,29.73,North,356,0.0,2.0,75,0.00,,,0.00,weatherlink.com 1.10,2013-10-22 20:33:00,
2013-10-22 16:48:00,58.6,51.0,29.73,SSE,148,0.0,0.0,76,0.00,,,0.00,weatherlink.com 1.10,2013-10-22 20:48:00,
2013-10-22 17:03:00,58.5,50.0,29.73,SSE,162,1.0,2.0,74,0.00,,,0.00,weatherlink.com 1.10,2013-10-22 21:03:00,
2013-10-22 17:18:00,58.1,50.0,29.73,SSE,161,0.0,0.0,75,0.00,,,0.00,weatherlink.com 1.10,2013-10-22 21:18:00,
2013-10-22 17:33:00,57.2,49.0,29.74,SSE,160,0.0,0.0,75,0.00,,,0.00,weatherlink.com 1.10,2013-10-22 21:33:00,
2013-10-22 17:48:00,56.6,49.0,29.74,SSE,160,0.0,0.0,77,0.00,,,0.00,weatherlink.com 1.10,2013-10-22 21:48:00,
2013-10-22 18:03:00,55.6,49.0,29.74,SSE,160,0.0,0.0,78,0.00,,,0.00,weatherlink.com 1.10,2013-10-22 22:03:00,
2013-10-22 18:18:00,54.7,48.0,29.75,SSE,160,0.0,0.0,79,0.00,,,0.00,weatherlink.com 1.10,2013-10-22 22:18:00,
2013-10-22 18:33:00,53.7,48.0,29.75,SSE,160,0.0,0.0,81,0.00,,,0.00,weatherlink.com 1.10,2013-10-22 22:33:00,
2013-10-22 18:48:00,52.6,48.0,29.74,SSE,160,0.0,0.0,84,0.00,,,0.00,weatherlink.com 1.10,2013-10-22 22:48:00,
2013-10-22 19:03:00,51.7,48.0,29.75,SSE,160,0.0,0.0,86,0.00,,,0.00,weatherlink.com 1.10,2013-10-22 23:03:00,
2013-10-22 19:18:00,50.9,47.0,29.75,SSE,160,0.0,0.0,86,0.00,,,0.00,weatherlink.com 1.10,2013-10-22 23:18:00,
2013-10-22 19:33:00,50.3,47.0,29.75,SSE,160,0.0,0.0,88,0.00,,,0.00,weatherlink.com 1.10,2013-10-22 23:33:00,
2013-10-22 19:48:00,49.5,46.0,29.75,SSE,160,0.0,0.0,89,0.00,,,0.00,weatherlink.com 1.10,2013-10-22 23:48:00,
2013-10-22 20:03:00,48.9,46.0,29.75,SSE,160,0.0,0.0,90,0.00,,,0.00,weatherlink.com 1.10,2013-10-23 00:03:00,
2013-10-22 20:18:00,48.3,46.0,29.76,SSE,160,0.0,0.0,91,0.00,,,0.00,weatherlink.com 1.10,2013-10-23 00:18:00,
2013-10-22 20:33:00,47.7,46.0,29.76,SSE,160,0.0,0.0,92,0.00,,,0.00,weatherlink.com 1.10,2013-10-23 00:33:00,
2013-10-22 20:48:00,47.2,45.0,29.76,SSE,160,0.0,0.0,93,0.00,,,0.00,weatherlink.com 1.10,2013-10-23 00:48:00,
2013-10-22 21:03:00,47.1,45.0,29.76,SSE,160,0.0,0.0,93,0.00,,,0.00,weatherlink.com 1.10,2013-10-23 01:03:00,
2013-10-22 21:18:00,47.0,45.0,29.77,SSE,160,1.0,1.0,94,0.00,,,0.00,weatherlink.com 1.10,2013-10-23 01:18:00,
2013-10-22 21:33:00,47.0,45.0,29.77,SSE,159,0.0,0.0,94,0.00,,,0.00,weatherlink.com 1.10,2013-10-23 01:33:00,
2013-10-22 21:48:00,48.7,47.0,29.77,North,355,3.0,3.0,92,0.00,,,0.00,weatherlink.com 1.10,2013-10-23 01:48:00,
2013-10-22 22:03:00,49.6,46.0,29.78,North,357,2.0,3.0,86,0.00,,,0.00,weatherlink.com 1.10,2013-10-23 02:03:00,
2013-10-22 22:18:00,49.2,44.0,29.78,NNE,13,0.0,3.0,83,0.00,,,0.00,weatherlink.com 1.10,2013-10-23 02:18:00,
2013-10-22 22:33:00,48.6,44.0,29.79,NNE,15,0.0,1.0,83,0.00,,,0.00,weatherlink.com 1.10,2013-10-23 02:33:00,
2013-10-22 22:48:00,47.7,43.0,29.79,NNE,15,0.0,1.0,84,0.00,,,0.00,weatherlink.com 1.10,2013-10-23 02:48:00,
2013-10-22 23:03:00,46.8,43.0,29.78,NNE,14,1.0,1.0,85,0.00,,,0.00,weatherlink.com 1.10,2013-10-23 03:03:00,
2013-10-22 23:18:00,46.3,42.0,29.78,North,359,0.0,1.0,84,0.00,,,0.00,weatherlink.com 1.10,2013-10-23 03:18:00,
2013-10-22 23:33:00,45.9,41.0,29.78,NNW,330,1.0,2.0,84,0.00,,,0.00,weatherlink.com 1.10,2013-10-23 03:33:00,
2013-10-22 23:48:00,46.0,41.0,29.78,North,352,1.0,1.0,83,0.00,,,0.00,weatherlink.com 1.10,2013-10-23 03:48:00,